createdAt,value
2023-02-11T00:00:36.002Z,7.93
2023-02-11T00:05:29.490Z,8.13
2023-02-11T00:10:22.619Z,8.23
2023-02-11T00:15:15.538Z,7.70
2023-02-11T00:20:10.847Z,8.38
2023-02-11T00:25:03.497Z,7.60
2023-02-11T00:29:57.026Z,7.45
2023-02-11T00:34:53.126Z,7.10
2023-02-11T00:39:45.930Z,7.50
2023-02-11T00:44:39.369Z,7.45
2023-02-11T00:49:33.481Z,7.70
2023-02-11T00:54:28.419Z,7.10
2023-02-11T00:59:22.818Z,7.57
2023-02-11T01:04:15.967Z,6.70
2023-02-11T01:09:09.399Z,6.80
2023-02-11T01:14:03.078Z,6.65
2023-02-11T01:18:57.276Z,6.03
2023-02-11T01:23:50.417Z,7.05
2023-02-11T01:28:44.430Z,6.28
2023-02-11T01:33:37.325Z,5.85
2023-02-11T01:38:34.088Z,5.55
2023-02-11T01:43:28.477Z,5.85
2023-02-11T01:48:30.047Z,5.88
2023-02-11T01:53:42.550Z,5.78
2023-02-11T01:58:39.410Z,5.80
2023-02-11T02:03:37.259Z,5.35
2023-02-11T02:08:50.830Z,5.22
2023-02-11T02:13:44.184Z,5.78
2023-02-11T02:18:40.287Z,5.30
2023-02-11T02:23:50.527Z,5.13
2023-02-11T02:29:01.423Z,5.10
2023-02-11T02:38:55.768Z,5.07
2023-02-11T02:43:51.295Z,5.20
2023-02-11T02:48:45.487Z,4.85
2023-02-11T02:54:08.906Z,4.88
2023-02-11T02:59:21.963Z,4.93
2023-02-11T03:04:27.665Z,4.35
2023-02-11T03:09:43.673Z,4.68
2023-02-11T03:14:38.005Z,3.85
2023-02-11T03:19:42.103Z,4.60
2023-02-11T03:24:38.878Z,3.92
2023-02-11T03:29:43.535Z,4.47
2023-02-11T03:34:57.486Z,3.95
2023-02-11T03:40:04.139Z,4.13
2023-02-11T03:45:07.688Z,3.95
2023-02-11T03:50:03.431Z,3.97
2023-02-11T03:54:59.319Z,4.15
2023-02-11T03:59:56.477Z,3.95
2023-02-11T04:04:48.826Z,4.32
2023-02-11T04:09:41.612Z,3.53
2023-02-11T04:14:34.829Z,4.00
2023-02-11T04:19:28.502Z,3.90
2023-02-11T04:24:21.518Z,3.85
2023-02-11T04:29:14.953Z,3.60
2023-02-11T04:34:08.686Z,3.80
2023-02-11T04:39:02.090Z,3.80
2023-02-11T04:43:55.949Z,3.65
2023-02-11T04:48:48.344Z,3.55
2023-02-11T04:53:42.720Z,3.42
2023-02-11T04:58:36.156Z,3.45
2023-02-11T05:03:30.521Z,3.40
2023-02-11T05:08:23.224Z,2.78
2023-02-11T05:13:16.878Z,2.95
2023-02-11T05:18:09.262Z,2.63
2023-02-11T05:23:02.587Z,2.80
2023-02-11T05:27:55.943Z,2.83
2023-02-11T05:32:48.956Z,3.22
2023-02-11T05:37:43.116Z,2.70
2023-02-11T05:42:36.636Z,2.70
2023-02-11T05:47:29.886Z,2.85
2023-02-11T05:52:23.908Z,2.83
2023-02-11T05:57:18.275Z,2.65
2023-02-11T06:02:11.622Z,2.97
2023-02-11T06:07:04.610Z,2.60
2023-02-11T06:11:57.420Z,2.80
2023-02-11T06:16:50.749Z,2.50
2023-02-11T06:21:44.685Z,2.60
2023-02-11T06:26:38.378Z,2.63
2023-02-11T06:31:31.253Z,2.50
2023-02-11T06:36:23.492Z,3.00
2023-02-11T06:41:19.024Z,2.80
2023-02-11T06:46:12.890Z,2.50
2023-02-11T06:51:07.992Z,2.70
2023-02-11T06:56:06.939Z,2.88
2023-02-11T07:00:59.441Z,2.90
2023-02-11T07:05:52.975Z,6.25
2023-02-11T07:10:46.909Z,8.43
2023-02-11T07:15:39.002Z,8.30
2023-02-11T07:20:32.696Z,7.65
2023-02-11T07:25:25.758Z,6.43
2023-02-11T07:30:18.665Z,7.18
2023-02-11T07:35:12.138Z,6.25
2023-02-11T07:40:08.460Z,6.07
2023-02-11T07:45:00.893Z,6.40
2023-02-11T07:49:56.214Z,5.45
2023-02-11T07:54:49.113Z,5.15
2023-02-11T07:59:42.370Z,4.70
2023-02-11T08:04:35.547Z,5.15
2023-02-11T08:09:29.320Z,4.13
2023-02-11T08:14:22.715Z,4.50
2023-02-11T08:19:17.607Z,4.28
2023-02-11T08:24:10.634Z,4.10
2023-02-11T08:29:07.492Z,4.03
2023-02-11T08:34:02.618Z,4.13
2023-02-11T08:39:16.118Z,4.47
2023-02-11T08:44:13.871Z,4.47
2023-02-11T08:49:07.249Z,4.85
2023-02-11T08:54:00.838Z,4.70
2023-02-11T08:58:54.595Z,6.38
2023-02-11T09:03:47.162Z,6.20
2023-02-11T09:08:45.268Z,5.40
2023-02-11T09:13:42.377Z,5.40
2023-02-11T09:18:35.310Z,6.20
2023-02-11T09:23:28.906Z,7.20
2023-02-11T09:28:22.821Z,7.13
2023-02-11T09:33:16.030Z,7.35
2023-02-11T09:38:09.043Z,7.70
2023-02-11T09:43:12.014Z,7.35
2023-02-11T09:48:18.622Z,8.15
2023-02-11T09:53:29.230Z,8.15
2023-02-11T09:58:27.913Z,7.55
2023-02-11T10:03:38.487Z,8.48
2023-02-11T10:08:54.922Z,8.32
2023-02-11T10:14:23.432Z,7.18
2023-02-11T10:19:22.953Z,8.50
2023-02-11T10:24:18.096Z,7.93
2023-02-11T10:29:49.001Z,8.70
2023-02-11T10:34:43.370Z,7.95
2023-02-11T10:39:36.715Z,7.95
2023-02-11T10:44:59.366Z,7.93
2023-02-11T10:49:52.054Z,7.95
2023-02-11T10:55:03.943Z,7.60
2023-02-11T11:00:40.125Z,6.57
2023-02-11T11:05:50.049Z,6.88
2023-02-11T11:11:04.716Z,6.78
2023-02-11T11:16:15.426Z,6.90
2023-02-11T11:26:11.289Z,6.10
2023-02-11T11:31:06.418Z,7.00
2023-02-11T11:36:06.983Z,6.53
2023-02-11T11:41:15.504Z,6.53
2023-02-11T11:46:12.639Z,7.20
2023-02-11T11:51:11.500Z,6.35
2023-02-11T11:56:16.945Z,6.00
2023-02-11T12:01:46.078Z,6.35
2023-02-11T12:06:39.658Z,6.15
2023-02-11T12:11:54.144Z,6.03
2023-02-11T12:16:55.680Z,8.45
2023-02-11T12:21:57.235Z,89.95
2023-02-11T12:27:02.847Z,58.05
2023-02-11T12:32:28.643Z,47.92
2023-02-11T12:38:18.971Z,42.47
2023-02-11T12:43:35.813Z,35.47
2023-02-11T12:48:30.666Z,34.28
2023-02-11T12:53:42.148Z,33.20
2023-02-11T12:58:44.980Z,30.52
2023-02-11T13:03:56.346Z,29.00
2023-02-11T13:08:54.263Z,28.03
2023-02-11T13:13:49.501Z,26.95
2023-02-11T13:18:54.770Z,21.83
2023-02-11T13:24:20.371Z,22.48
2023-02-11T13:29:30.736Z,20.15
2023-02-11T13:34:42.315Z,19.45
2023-02-11T13:39:35.299Z,18.58
2023-02-11T13:44:28.838Z,18.95
2023-02-11T13:49:30.446Z,17.90
2023-02-11T13:54:52.821Z,16.73
2023-02-11T13:59:46.347Z,16.05
2023-02-11T14:05:20.321Z,16.02
2023-02-11T14:10:52.225Z,16.42
2023-02-11T14:15:46.963Z,15.52
2023-02-11T14:20:44.730Z,14.10
2023-02-11T14:25:42.645Z,14.63
2023-02-11T14:30:51.043Z,13.77
2023-02-11T14:35:58.732Z,14.93
2023-02-11T14:41:11.968Z,12.68
2023-02-11T14:46:06.145Z,12.50
2023-02-11T14:51:02.825Z,12.77
2023-02-11T14:55:56.386Z,12.82
2023-02-11T15:00:53.914Z,13.07
2023-02-11T15:05:47.065Z,12.85
2023-02-11T15:10:44.797Z,12.32
2023-02-11T15:15:41.148Z,12.73
2023-02-11T15:20:34.919Z,13.52
2023-02-11T15:25:28.739Z,12.23
2023-02-11T15:30:24.262Z,12.18
2023-02-11T15:35:17.446Z,11.73
2023-02-11T15:40:19.769Z,12.32
2023-02-11T15:45:15.399Z,11.50
2023-02-11T15:50:21.694Z,11.25
2023-02-11T15:55:21.016Z,12.77
2023-02-11T16:00:19.991Z,12.63
2023-02-11T16:05:32.093Z,12.90
2023-02-11T16:10:36.887Z,12.23
2023-02-11T16:15:35.044Z,12.63
2023-02-11T16:20:28.781Z,11.32
2023-02-11T16:25:23.258Z,12.90
2023-02-11T16:30:33.301Z,11.85
2023-02-11T16:35:27.367Z,11.10
2023-02-11T16:40:21.725Z,11.10
2023-02-11T16:45:16.286Z,10.52
2023-02-11T16:50:11.858Z,10.20
2023-02-11T16:55:06.857Z,9.77
2023-02-11T17:00:00.527Z,10.43
2023-02-11T17:04:54.914Z,10.48
2023-02-11T17:09:48.232Z,9.98
2023-02-11T17:14:41.357Z,10.50
2023-02-11T17:19:34.503Z,9.60
2023-02-11T17:24:27.065Z,9.50
2023-02-11T17:29:23.324Z,9.90
2023-02-11T17:34:17.565Z,9.77
2023-02-11T17:39:11.061Z,10.38
2023-02-11T17:44:04.680Z,9.20
2023-02-11T17:48:59.711Z,11.93
2023-02-11T17:53:54.383Z,12.68
2023-02-11T17:58:48.771Z,15.23
2023-02-11T18:03:41.580Z,13.82
2023-02-11T18:08:35.418Z,13.93
2023-02-11T18:13:28.493Z,13.30
2023-02-11T18:18:21.681Z,13.63
2023-02-11T18:23:15.597Z,11.02
2023-02-11T18:28:09.033Z,12.13
2023-02-11T18:33:02.281Z,12.05
2023-02-11T18:37:56.399Z,11.45
2023-02-11T18:42:49.852Z,11.13
2023-02-11T18:47:43.086Z,11.57
2023-02-11T18:52:38.988Z,18.02
2023-02-11T18:57:33.452Z,21.13
2023-02-11T19:02:26.409Z,18.63
2023-02-11T19:07:19.610Z,18.40
2023-02-11T19:12:13.353Z,16.13
2023-02-11T19:17:08.400Z,14.63
2023-02-11T19:22:02.596Z,13.80
2023-02-11T19:26:59.312Z,13.85
2023-02-11T19:31:52.723Z,13.15
2023-02-11T19:36:46.847Z,12.60
2023-02-11T19:41:40.300Z,11.98
2023-02-11T19:46:36.173Z,11.88
2023-02-11T19:51:34.209Z,12.40
2023-02-11T19:56:28.639Z,12.38
2023-02-11T20:01:24.355Z,13.07
2023-02-11T20:06:24.018Z,13.68
2023-02-11T20:11:18.053Z,11.45
2023-02-11T20:16:19.468Z,12.80
2023-02-11T20:21:23.994Z,11.52
2023-02-11T20:26:31.522Z,11.48
2023-02-11T20:31:25.601Z,11.05
2023-02-11T20:36:20.690Z,11.43
2023-02-11T20:41:22.738Z,11.20
2023-02-11T20:46:18.145Z,11.50
2023-02-11T20:51:19.048Z,11.10
2023-02-11T20:56:13.869Z,10.43
2023-02-11T21:01:11.604Z,11.40
2023-02-11T21:06:04.638Z,11.13
2023-02-11T21:10:59.499Z,9.77
2023-02-11T21:15:56.522Z,10.70
2023-02-11T21:20:50.939Z,9.85
2023-02-11T21:25:44.284Z,9.98
2023-02-11T21:30:41.426Z,10.15
2023-02-11T21:35:36.280Z,9.63
2023-02-11T21:40:29.386Z,9.75
2023-02-11T21:45:22.761Z,9.27
2023-02-11T21:50:16.201Z,9.32
2023-02-11T21:55:10.255Z,8.75
2023-02-11T22:00:03.309Z,9.40
2023-02-11T22:04:58.526Z,8.65
2023-02-11T22:09:55.473Z,8.30
2023-02-11T22:14:49.076Z,9.10
2023-02-11T22:19:42.927Z,8.68
2023-02-11T22:24:37.254Z,8.13
2023-02-11T22:29:30.572Z,8.00
2023-02-11T22:34:24.303Z,8.27
2023-02-11T22:39:18.473Z,7.90
2023-02-11T22:44:11.628Z,7.97
2023-02-11T22:49:06.506Z,7.95
2023-02-11T22:54:00.537Z,7.65
2023-02-11T22:59:13.150Z,7.40
2023-02-11T23:04:08.382Z,7.13
2023-02-11T23:09:04.301Z,7.15
2023-02-11T23:13:56.942Z,7.60
2023-02-11T23:18:50.671Z,7.60
2023-02-11T23:23:43.894Z,7.18
2023-02-11T23:28:37.153Z,6.78
2023-02-11T23:33:31.050Z,6.63
2023-02-11T23:38:23.502Z,6.85
2023-02-11T23:43:17.078Z,6.55
2023-02-11T23:48:10.988Z,6.68
2023-02-11T23:53:04.093Z,6.30
2023-02-11T23:57:57.880Z,6.13
